createdAt,value
2023-01-25T00:00:35.622Z,61.40
2023-01-25T00:03:02.599Z,61.40
2023-01-25T00:05:29.592Z,61.50
2023-01-25T00:07:56.482Z,61.50
2023-01-25T00:10:23.416Z,61.60
2023-01-25T00:12:50.371Z,61.50
2023-01-25T00:15:17.397Z,61.40
2023-01-25T00:17:44.382Z,61.20
2023-01-25T00:20:11.592Z,61.10
2023-01-25T00:22:38.511Z,61.10
2023-01-25T00:25:06.180Z,60.90
2023-01-25T00:27:33.268Z,61.00
2023-01-25T00:30:00.173Z,61.00
2023-01-25T00:32:42.479Z,60.90
2023-01-25T00:35:12.593Z,61.00
2023-01-25T00:37:43.733Z,61.40
2023-01-25T00:40:13.073Z,60.80
2023-01-25T00:42:41.085Z,60.70
2023-01-25T00:45:10.631Z,60.70
2023-01-25T00:47:37.749Z,60.80
2023-01-25T00:50:09.028Z,60.70
2023-01-25T00:52:36.167Z,60.90
2023-01-25T00:55:03.916Z,60.80
2023-01-25T00:57:30.816Z,60.90
2023-01-25T00:59:57.750Z,60.80
2023-01-25T01:02:24.643Z,60.80
2023-01-25T01:04:51.723Z,60.80
2023-01-25T01:07:18.682Z,60.90
2023-01-25T01:09:45.937Z,60.90
2023-01-25T01:12:12.853Z,61.00
2023-01-25T01:14:39.950Z,61.10
2023-01-25T01:17:07.085Z,61.10
2023-01-25T01:19:34.122Z,61.10
2023-01-25T01:22:01.044Z,61.10
2023-01-25T01:24:27.990Z,61.00
2023-01-25T01:26:54.986Z,60.90
2023-01-25T01:29:21.927Z,61.00
2023-01-25T01:31:52.490Z,61.00
2023-01-25T01:34:20.424Z,61.10
2023-01-25T01:36:47.425Z,61.20
2023-01-25T01:39:14.459Z,60.90
2023-01-25T01:41:41.359Z,60.90
2023-01-25T01:44:20.834Z,60.90
2023-01-25T01:46:54.862Z,61.00
2023-01-25T01:49:26.552Z,61.10
2023-01-25T01:52:01.003Z,61.00
2023-01-25T01:54:44.994Z,61.00
2023-01-25T01:57:18.525Z,60.90
2023-01-25T01:59:50.529Z,60.90
2023-01-25T02:02:17.622Z,60.90
2023-01-25T02:04:47.618Z,60.90
2023-01-25T02:07:21.142Z,60.90
2023-01-25T02:09:50.733Z,60.90
2023-01-25T02:12:20.970Z,61.00
2023-01-25T02:14:51.799Z,60.70
2023-01-25T02:17:28.250Z,60.70
2023-01-25T02:20:15.048Z,60.90
2023-01-25T02:23:06.824Z,61.00
2023-01-25T02:25:33.819Z,60.90
2023-01-25T02:28:10.752Z,60.70
2023-01-25T02:30:38.232Z,60.90
2023-01-25T02:33:05.342Z,60.80
2023-01-25T02:35:47.410Z,60.70
2023-01-25T02:38:17.564Z,60.90
2023-01-25T02:41:07.077Z,61.00
2023-01-25T02:43:35.328Z,61.00
2023-01-25T02:46:21.181Z,60.90
2023-01-25T02:48:48.196Z,61.10
2023-01-25T02:51:15.337Z,60.90
2023-01-25T02:53:42.399Z,60.80
2023-01-25T02:56:09.354Z,60.60
2023-01-25T02:58:36.245Z,60.70
2023-01-25T03:01:03.509Z,60.80
2023-01-25T03:03:30.441Z,60.80
2023-01-25T03:05:57.312Z,60.90
2023-01-25T03:08:24.297Z,60.80
2023-01-25T03:10:51.305Z,60.90
2023-01-25T03:13:18.299Z,61.60
2023-01-25T03:15:45.183Z,60.90
2023-01-25T03:18:12.159Z,61.00
2023-01-25T03:20:39.093Z,61.00
2023-01-25T03:23:06.072Z,61.00
2023-01-25T03:25:33.055Z,60.90
2023-01-25T03:28:00.065Z,60.90
2023-01-25T03:30:27.053Z,60.90
2023-01-25T03:32:54.001Z,60.70
2023-01-25T03:35:20.845Z,60.70
2023-01-25T03:37:47.875Z,60.70
2023-01-25T03:40:14.880Z,60.80
2023-01-25T03:42:41.852Z,60.70
2023-01-25T03:45:09.383Z,60.60
2023-01-25T03:47:36.580Z,60.70
2023-01-25T03:50:03.624Z,60.50
2023-01-25T03:53:24.111Z,60.60
2023-01-25T03:55:51.171Z,60.80
2023-01-25T03:58:18.209Z,60.80
2023-01-25T04:00:45.206Z,60.80
2023-01-25T04:03:12.182Z,60.80
2023-01-25T04:05:39.251Z,60.80
2023-01-25T04:08:06.475Z,60.80
2023-01-25T04:10:33.362Z,60.80
2023-01-25T04:13:00.285Z,60.80
2023-01-25T04:15:27.197Z,60.90
2023-01-25T04:17:54.131Z,60.80
2023-01-25T04:20:21.074Z,61.00
2023-01-25T04:22:48.292Z,61.00
2023-01-25T04:25:15.406Z,61.00
2023-01-25T04:27:42.384Z,61.00
2023-01-25T04:30:09.927Z,60.90
2023-01-25T04:32:37.083Z,61.00
2023-01-25T04:35:04.334Z,60.90
2023-01-25T04:37:31.307Z,60.80
2023-01-25T04:39:58.245Z,60.70
2023-01-25T04:42:25.391Z,60.60
2023-01-25T04:44:52.343Z,60.50
2023-01-25T04:47:19.339Z,60.40
2023-01-25T04:49:46.309Z,60.40
2023-01-25T04:52:13.280Z,60.50
2023-01-25T04:54:40.250Z,60.40
2023-01-25T04:57:07.239Z,60.60
2023-01-25T04:59:34.216Z,60.70
2023-01-25T05:02:01.258Z,60.70
2023-01-25T05:04:28.300Z,60.70
2023-01-25T05:06:55.168Z,60.80
2023-01-25T05:09:22.152Z,60.90
2023-01-25T05:11:48.995Z,60.60
2023-01-25T05:14:16.239Z,60.60
2023-01-25T05:16:43.334Z,60.50
2023-01-25T05:19:10.848Z,60.50
2023-01-25T05:21:56.007Z,60.60
2023-01-25T05:24:23.131Z,60.70
2023-01-25T05:27:05.657Z,60.70
2023-01-25T05:29:38.536Z,60.90
2023-01-25T05:32:07.047Z,61.00
2023-01-25T05:34:34.804Z,61.00
2023-01-25T05:37:03.164Z,61.10
2023-01-25T05:39:30.490Z,61.10
2023-01-25T05:41:57.563Z,61.10
2023-01-25T05:44:24.756Z,61.10
2023-01-25T05:46:55.144Z,61.00
2023-01-25T05:49:22.269Z,61.00
2023-01-25T05:51:49.279Z,61.10
2023-01-25T05:54:17.937Z,61.10
2023-01-25T05:56:44.919Z,61.20
2023-01-25T05:59:12.968Z,61.00
2023-01-25T06:01:40.335Z,61.00
2023-01-25T06:04:07.395Z,60.90
2023-01-25T06:06:34.521Z,60.80
2023-01-25T06:09:02.547Z,60.90
2023-01-25T06:11:29.511Z,60.90
2023-01-25T06:13:56.664Z,61.00
2023-01-25T06:16:23.996Z,60.90
2023-01-25T06:18:50.953Z,61.00
2023-01-25T06:21:17.964Z,61.10
2023-01-25T06:23:45.346Z,61.10
2023-01-25T06:26:14.335Z,60.90
2023-01-25T06:28:41.828Z,60.90
2023-01-25T06:31:17.377Z,61.00
2023-01-25T06:33:49.299Z,60.90
2023-01-25T06:36:18.690Z,60.90
2023-01-25T06:38:51.920Z,60.70
2023-01-25T06:41:20.488Z,60.70
2023-01-25T06:43:50.154Z,60.70
2023-01-25T06:46:17.454Z,60.80
2023-01-25T06:48:44.508Z,60.60
2023-01-25T06:51:13.972Z,60.50
2023-01-25T06:53:43.960Z,60.60
2023-01-25T06:56:20.793Z,60.50
2023-01-25T06:58:49.187Z,60.50
2023-01-25T07:01:21.099Z,60.50
2023-01-25T07:03:50.223Z,60.50
2023-01-25T07:06:17.649Z,60.40
2023-01-25T07:08:44.916Z,60.40
2023-01-25T07:11:14.091Z,60.50
2023-01-25T07:13:43.538Z,60.60
2023-01-25T07:16:14.325Z,60.80
2023-01-25T07:18:42.469Z,61.00
2023-01-25T07:21:18.296Z,61.00
2023-01-25T07:23:45.561Z,61.10
2023-01-25T07:26:15.619Z,60.90
2023-01-25T07:28:43.147Z,60.70
2023-01-25T07:31:10.305Z,61.00
2023-01-25T07:33:37.446Z,60.90
2023-01-25T07:36:07.272Z,60.80
2023-01-25T07:38:34.500Z,61.00
2023-01-25T07:41:01.752Z,60.70
2023-01-25T07:43:29.340Z,60.70
2023-01-25T07:46:01.909Z,60.60
2023-01-25T07:48:29.256Z,60.70
2023-01-25T07:51:16.771Z,60.60
2023-01-25T07:53:44.406Z,60.60
2023-01-25T07:56:12.643Z,60.40
2023-01-25T07:58:40.216Z,60.40
2023-01-25T08:01:18.474Z,60.20
2023-01-25T08:03:47.042Z,60.20
2023-01-25T08:06:14.531Z,60.20
2023-01-25T08:08:48.356Z,60.10
2023-01-25T08:11:22.326Z,60.40
2023-01-25T08:13:50.069Z,60.50
2023-01-25T08:16:24.350Z,60.50
2023-01-25T08:18:56.608Z,60.70
2023-01-25T08:21:25.725Z,60.70
2023-01-25T08:23:52.710Z,60.90
2023-01-25T08:26:19.685Z,60.80
2023-01-25T08:28:46.940Z,60.90
2023-01-25T08:31:19.372Z,60.90
2023-01-25T08:33:47.174Z,61.00
2023-01-25T08:36:15.696Z,60.90
2023-01-25T08:38:43.285Z,60.90
2023-01-25T08:41:16.349Z,60.80
2023-01-25T08:43:44.645Z,60.60
2023-01-25T08:46:12.487Z,60.90
2023-01-25T08:48:39.527Z,60.90
2023-01-25T08:51:11.881Z,60.90
2023-01-25T08:53:39.257Z,61.00
2023-01-25T08:56:08.452Z,61.00
2023-01-25T08:58:38.437Z,61.10
2023-01-25T09:01:08.976Z,61.20
2023-01-25T09:03:38.636Z,61.10
2023-01-25T09:06:07.027Z,61.00
2023-01-25T09:08:35.162Z,60.90
2023-01-25T09:11:05.108Z,60.90
2023-01-25T09:13:32.932Z,60.70
2023-01-25T09:16:04.996Z,60.70
2023-01-25T09:18:33.276Z,60.60
2023-01-25T09:21:06.169Z,60.40
2023-01-25T09:23:40.110Z,60.40
2023-01-25T09:26:19.521Z,60.30
2023-01-25T09:28:51.589Z,60.30
2023-01-25T09:31:22.858Z,60.40
2023-01-25T09:33:52.081Z,60.40
2023-01-25T09:36:19.662Z,60.50
2023-01-25T09:38:46.609Z,60.50
2023-01-25T09:41:31.714Z,60.50
2023-01-25T09:44:10.532Z,61.50
2023-01-25T09:46:52.531Z,60.70
2023-01-25T09:49:38.439Z,60.70
2023-01-25T09:52:17.374Z,60.80
2023-01-25T09:54:47.613Z,60.90
2023-01-25T09:57:35.324Z,60.80
2023-01-25T10:00:10.644Z,60.80
2023-01-25T10:02:52.100Z,60.70
2023-01-25T10:05:32.507Z,60.70
2023-01-25T10:08:25.956Z,60.70
2023-01-25T10:11:00.285Z,60.60
2023-01-25T10:13:32.075Z,60.70
2023-01-25T10:16:14.594Z,60.70
2023-01-25T10:19:10.022Z,60.70
2023-01-25T10:21:53.167Z,60.70
2023-01-25T10:24:41.201Z,60.80
2023-01-25T10:27:18.938Z,60.90
2023-01-25T10:29:47.539Z,60.90
2023-01-25T10:32:17.441Z,60.90
2023-01-25T10:34:57.472Z,61.00
2023-01-25T10:37:34.259Z,61.10
2023-01-25T10:40:07.137Z,61.10
2023-01-25T10:42:43.812Z,61.00
2023-01-25T10:45:15.725Z,60.80
2023-01-25T10:47:55.072Z,60.80
2023-01-25T10:50:43.257Z,60.80
2023-01-25T10:53:33.042Z,60.80
2023-01-25T10:56:06.577Z,60.80
2023-01-25T10:58:42.953Z,60.80
2023-01-25T11:01:14.608Z,61.00
2023-01-25T11:03:46.519Z,60.90
2023-01-25T11:06:13.484Z,61.00
2023-01-25T11:08:43.189Z,60.90
2023-01-25T11:11:33.556Z,62.00
2023-01-25T11:14:00.907Z,61.20
2023-01-25T11:16:38.736Z,61.10
2023-01-25T11:19:24.128Z,61.10
2023-01-25T11:21:53.399Z,60.70
2023-01-25T11:24:20.729Z,60.90
2023-01-25T11:26:47.786Z,60.60
2023-01-25T11:29:21.258Z,60.50
2023-01-25T11:31:51.691Z,60.70
2023-01-25T11:34:22.186Z,60.70
2023-01-25T11:37:09.656Z,60.80
2023-01-25T11:40:02.711Z,61.00
2023-01-25T11:42:54.592Z,60.90
2023-01-25T11:45:42.867Z,60.70
2023-01-25T11:48:22.730Z,60.60
2023-01-25T11:51:06.708Z,60.70
2023-01-25T11:53:45.771Z,60.90
2023-01-25T11:56:34.331Z,61.10
2023-01-25T11:59:01.401Z,61.10
2023-01-25T12:01:31.147Z,61.00
2023-01-25T12:04:20.006Z,61.10
2023-01-25T12:07:16.367Z,61.10
2023-01-25T12:10:20.758Z,60.90
2023-01-25T12:13:00.657Z,60.70
2023-01-25T12:15:53.613Z,60.70
2023-01-25T12:18:53.878Z,60.50
2023-01-25T12:21:39.251Z,60.60
2023-01-25T12:24:24.491Z,60.60
2023-01-25T12:27:07.758Z,60.30
2023-01-25T12:29:45.378Z,60.10
2023-01-25T12:32:38.413Z,60.20
2023-01-25T12:35:14.600Z,60.20
2023-01-25T12:37:44.117Z,60.20
2023-01-25T12:40:20.596Z,60.10
2023-01-25T12:42:54.047Z,60.20
2023-01-25T12:45:30.592Z,60.00
2023-01-25T12:48:01.841Z,60.00
2023-01-25T12:50:41.648Z,59.60
2023-01-25T12:53:29.821Z,59.80
2023-01-25T12:55:58.746Z,59.90
2023-01-25T12:58:49.167Z,59.90
2023-01-25T13:01:54.901Z,60.00
2023-01-25T13:04:40.884Z,59.90
2023-01-25T13:07:20.526Z,59.70
2023-01-25T13:10:12.984Z,59.90
2023-01-25T13:12:58.829Z,59.90
2023-01-25T13:15:39.848Z,59.70
2023-01-25T13:18:31.165Z,59.60
2023-01-25T13:21:00.186Z,59.50
2023-01-25T13:23:50.164Z,59.60
2023-01-25T13:26:29.304Z,59.50
2023-01-25T13:29:01.170Z,59.50
2023-01-25T13:31:58.898Z,59.40
2023-01-25T13:34:42.490Z,59.60
2023-01-25T13:37:23.578Z,60.00
2023-01-25T13:40:06.510Z,60.00
2023-01-25T13:42:39.446Z,60.00
2023-01-25T13:45:21.153Z,60.00
2023-01-25T13:48:06.399Z,59.90
2023-01-25T13:50:38.165Z,59.70
2023-01-25T13:53:07.037Z,59.70
2023-01-25T13:55:42.949Z,59.60
2023-01-25T13:58:17.036Z,59.60
2023-01-25T14:00:56.128Z,59.50
2023-01-25T14:03:28.102Z,59.60
2023-01-25T14:05:57.798Z,59.60
2023-01-25T14:08:26.559Z,59.50
2023-01-25T14:10:54.550Z,59.60
2023-01-25T14:13:21.963Z,59.80
2023-01-25T14:15:58.100Z,59.70
2023-01-25T14:18:34.424Z,59.90
2023-01-25T14:21:22.261Z,59.90
2023-01-25T14:23:49.700Z,59.90
2023-01-25T14:26:22.739Z,59.90
2023-01-25T14:29:01.134Z,59.80
2023-01-25T14:31:35.662Z,59.70
2023-01-25T14:34:04.985Z,59.60
2023-01-25T14:36:37.180Z,59.70
2023-01-25T14:39:27.029Z,59.80
2023-01-25T14:42:01.026Z,59.70
2023-01-25T14:44:29.701Z,59.60
2023-01-25T14:47:24.785Z,59.60
2023-01-25T14:49:51.875Z,59.50
2023-01-25T14:52:22.204Z,59.50
2023-01-25T14:54:58.819Z,59.70
2023-01-25T14:57:41.809Z,59.80
2023-01-25T15:00:17.761Z,59.80
2023-01-25T15:02:57.590Z,59.80
2023-01-25T15:05:33.207Z,59.80
2023-01-25T15:08:06.907Z,59.80
2023-01-25T15:10:36.036Z,59.70
2023-01-25T15:13:14.619Z,59.90
2023-01-25T15:16:00.208Z,60.00
2023-01-25T15:18:53.233Z,60.20
2023-01-25T15:21:28.831Z,60.10
2023-01-25T15:24:04.981Z,60.10
2023-01-25T15:26:34.479Z,60.10
2023-01-25T15:29:05.837Z,60.10
2023-01-25T15:31:34.751Z,60.00
2023-01-25T15:34:02.791Z,60.20
2023-01-25T15:36:31.775Z,60.30
2023-01-25T15:38:58.819Z,60.30
2023-01-25T15:41:25.990Z,60.30
2023-01-25T15:43:53.035Z,60.30
2023-01-25T15:46:22.362Z,60.30
2023-01-25T15:48:50.628Z,60.40
2023-01-25T15:51:18.486Z,60.50
2023-01-25T15:53:46.780Z,60.40
2023-01-25T15:56:19.290Z,60.30
2023-01-25T15:58:58.212Z,60.40
2023-01-25T16:01:27.566Z,60.30
2023-01-25T16:03:56.582Z,60.50
2023-01-25T16:06:45.171Z,60.40
2023-01-25T16:09:27.301Z,60.50
2023-01-25T16:11:56.841Z,60.30
2023-01-25T16:14:29.103Z,60.40
2023-01-25T16:16:59.444Z,60.40
2023-01-25T16:19:26.475Z,60.30
2023-01-25T16:21:53.592Z,60.40
2023-01-25T16:24:20.834Z,60.20
2023-01-25T16:26:56.329Z,60.40
2023-01-25T16:29:24.072Z,60.40
2023-01-25T16:31:52.496Z,60.80
2023-01-25T16:34:21.208Z,60.10
2023-01-25T16:36:50.752Z,60.10
2023-01-25T16:39:21.295Z,60.20
2023-01-25T16:41:49.145Z,60.20
2023-01-25T16:44:16.876Z,60.70
2023-01-25T16:46:44.125Z,60.20
2023-01-25T16:49:17.207Z,60.00
2023-01-25T16:51:45.566Z,59.50
2023-01-25T16:54:13.225Z,59.80
2023-01-25T16:56:40.740Z,60.00
2023-01-25T16:59:09.528Z,60.00
2023-01-25T17:01:40.059Z,60.00
2023-01-25T17:04:07.451Z,60.20
2023-01-25T17:06:38.931Z,60.40
2023-01-25T17:09:21.474Z,61.40
2023-01-25T17:11:49.468Z,60.60
2023-01-25T17:14:19.296Z,60.50
2023-01-25T17:16:50.594Z,60.30
2023-01-25T17:19:19.494Z,60.10
2023-01-25T17:21:46.924Z,60.00
2023-01-25T17:24:17.060Z,60.20
2023-01-25T17:26:44.900Z,60.50
2023-01-25T17:29:13.899Z,60.50
2023-01-25T17:31:42.305Z,60.60
2023-01-25T17:34:13.541Z,60.70
2023-01-25T17:36:41.241Z,60.60
2023-01-25T17:39:08.682Z,60.50
2023-01-25T17:41:36.193Z,61.40
2023-01-25T17:44:03.663Z,60.40
2023-01-25T17:46:33.871Z,60.50
2023-01-25T17:49:02.517Z,60.60
2023-01-25T17:51:30.460Z,60.80
2023-01-25T17:53:57.986Z,60.70
2023-01-25T17:56:25.789Z,60.70
2023-01-25T17:58:54.829Z,60.70
2023-01-25T18:01:27.131Z,60.70
2023-01-25T18:03:55.990Z,60.60
2023-01-25T18:06:25.587Z,60.50
2023-01-25T18:08:54.688Z,60.50
2023-01-25T18:11:27.340Z,60.20
2023-01-25T18:13:57.163Z,60.40
2023-01-25T18:16:26.822Z,61.30
2023-01-25T18:18:58.795Z,60.60
2023-01-25T18:21:32.187Z,60.70
2023-01-25T18:24:22.305Z,60.60
2023-01-25T18:26:50.559Z,60.60
2023-01-25T18:29:17.918Z,60.50
2023-01-25T18:31:45.613Z,60.40
2023-01-25T18:34:12.788Z,60.50
2023-01-25T18:36:40.390Z,60.30
2023-01-25T18:39:08.837Z,60.40
2023-01-25T18:41:35.904Z,60.50
2023-01-25T18:44:03.003Z,60.40
2023-01-25T18:46:30.499Z,60.40
2023-01-25T18:48:58.042Z,60.40
2023-01-25T18:51:26.219Z,60.50
2023-01-25T18:53:53.746Z,60.50
2023-01-25T18:56:21.976Z,60.50
2023-01-25T18:58:51.121Z,60.60
2023-01-25T19:01:23.620Z,60.60
2023-01-25T19:03:51.620Z,60.60
2023-01-25T19:06:20.059Z,60.60
2023-01-25T19:08:53.393Z,60.60
2023-01-25T19:11:23.986Z,60.60
2023-01-25T19:13:51.349Z,60.60
2023-01-25T19:16:25.840Z,60.50
2023-01-25T19:18:54.559Z,60.60
2023-01-25T19:21:27.893Z,60.70
2023-01-25T19:23:56.220Z,60.70
2023-01-25T19:26:25.075Z,60.70
2023-01-25T19:28:53.155Z,60.80
2023-01-25T19:31:22.705Z,60.80
2023-01-25T19:33:58.452Z,60.80
2023-01-25T19:36:25.688Z,60.80
2023-01-25T19:38:53.173Z,60.80
2023-01-25T19:41:22.661Z,60.70
2023-01-25T19:43:56.078Z,60.70
2023-01-25T19:46:25.984Z,60.60
2023-01-25T19:48:54.030Z,60.70
2023-01-25T19:51:30.469Z,60.70
2023-01-25T19:54:00.427Z,60.90
2023-01-25T19:56:28.941Z,61.00
2023-01-25T19:58:55.975Z,61.20
2023-01-25T20:01:28.241Z,61.20
2023-01-25T20:04:02.246Z,61.40
2023-01-25T20:06:29.387Z,61.40
2023-01-25T20:08:56.861Z,61.50
2023-01-25T20:11:26.441Z,61.50
2023-01-25T20:13:56.906Z,61.80
2023-01-25T20:16:24.891Z,61.80
2023-01-25T20:18:52.013Z,61.80
2023-01-25T20:21:21.833Z,61.80
2023-01-25T20:23:53.251Z,61.90
2023-01-25T20:26:28.881Z,62.00
2023-01-25T20:28:58.185Z,62.00
2023-01-25T20:31:37.196Z,62.10
2023-01-25T20:34:07.378Z,62.10
2023-01-25T20:36:35.898Z,62.10
2023-01-25T20:39:04.255Z,62.10
2023-01-25T20:41:31.584Z,62.10
2023-01-25T20:44:02.138Z,62.00
2023-01-25T20:46:33.901Z,62.10
2023-01-25T20:49:02.233Z,62.10
2023-01-25T20:51:29.700Z,62.10
2023-01-25T20:53:57.657Z,62.20
2023-01-25T20:56:25.559Z,62.30
2023-01-25T20:58:53.955Z,62.30
2023-01-25T21:01:28.359Z,62.40
2023-01-25T21:03:57.062Z,62.40
2023-01-25T21:06:27.045Z,62.40
2023-01-25T21:08:54.994Z,62.40
2023-01-25T21:11:23.389Z,62.30
2023-01-25T21:13:50.482Z,62.40
2023-01-25T21:16:21.724Z,62.40
2023-01-25T21:18:52.203Z,62.60
2023-01-25T21:21:22.104Z,62.60
2023-01-25T21:23:50.539Z,62.70
2023-01-25T21:26:23.577Z,62.70
2023-01-25T21:28:52.167Z,62.60
2023-01-25T21:31:22.828Z,62.60
2023-01-25T21:33:50.794Z,62.70
2023-01-25T21:36:19.357Z,62.60
2023-01-25T21:38:49.255Z,62.80
2023-01-25T21:41:25.427Z,62.90
2023-01-25T21:44:13.591Z,63.00
2023-01-25T21:46:41.051Z,63.10
2023-01-25T21:49:29.583Z,63.00
2023-01-25T21:52:02.049Z,63.10
2023-01-25T21:54:35.123Z,63.20
2023-01-25T21:57:06.049Z,63.30
2023-01-25T21:59:33.009Z,63.30
2023-01-25T22:02:00.125Z,63.20
2023-01-25T22:04:27.244Z,63.30
2023-01-25T22:06:54.935Z,63.30
2023-01-25T22:09:23.069Z,63.30
2023-01-25T22:11:51.097Z,63.30
2023-01-25T22:14:23.385Z,63.30
2023-01-25T22:16:52.186Z,63.30
2023-01-25T22:19:19.663Z,63.30
2023-01-25T22:21:46.911Z,63.30
2023-01-25T22:24:14.596Z,63.40
2023-01-25T22:27:02.638Z,63.50
2023-01-25T22:29:30.059Z,63.50
2023-01-25T22:31:57.080Z,63.40
2023-01-25T22:34:24.140Z,63.40
2023-01-25T22:36:51.142Z,63.40
2023-01-25T22:39:18.111Z,63.50
2023-01-25T22:41:45.145Z,63.50
2023-01-25T22:44:14.490Z,63.50
2023-01-25T22:46:41.524Z,63.60
2023-01-25T22:49:09.064Z,63.70
2023-01-25T22:51:36.066Z,63.80
2023-01-25T22:54:03.192Z,63.70
2023-01-25T22:56:32.323Z,63.90
2023-01-25T22:59:00.475Z,64.00
2023-01-25T23:01:33.484Z,64.10
2023-01-25T23:04:01.581Z,64.20
2023-01-25T23:06:34.500Z,64.20
2023-01-25T23:09:04.115Z,64.40
2023-01-25T23:11:37.343Z,64.30
2023-01-25T23:14:29.790Z,64.40
2023-01-25T23:17:17.230Z,64.40
2023-01-25T23:19:44.483Z,64.30
2023-01-25T23:22:11.443Z,64.30
2023-01-25T23:24:38.443Z,64.20
2023-01-25T23:27:05.427Z,64.20
2023-01-25T23:29:32.806Z,64.20
2023-01-25T23:31:59.862Z,64.30
2023-01-25T23:34:26.930Z,64.30
2023-01-25T23:36:53.951Z,64.30
2023-01-25T23:39:20.910Z,64.20
2023-01-25T23:41:49.542Z,64.30
2023-01-25T23:44:16.451Z,64.30
2023-01-25T23:46:43.638Z,64.30
2023-01-25T23:49:10.836Z,64.20
2023-01-25T23:51:37.847Z,64.20
2023-01-25T23:54:05.203Z,64.20
2023-01-25T23:56:32.246Z,64.20
2023-01-25T23:58:59.250Z,64.20
